Time;durP1;ratioP1;P1;durP2;ratioP2;P2;SDS_P1;SDS_P2;PMS_P1;PMS_P2;Temp;Humidity;BMP_temperature;BMP_pressure;BME280_temperature;BME280_humidity;BME280_pressure;Samples;Min_cycle;Max_cycle;Signal;HPM_P1;HPM_P2
2022/01/04 00:01:38;;;;;;;24.48;3.75;;;7.40;99.90;;;;;;5054494;28;20051;-80
2022/01/04 00:04:04;;;;;;;23.20;3.58;;;7.40;99.90;;;;;;5062571;28;20039;-80
2022/01/04 00:06:30;;;;;;;25.35;3.38;;;7.40;99.90;;;;;;5052578;28;20058;-81
2022/01/04 00:09:00;;;;;;;16.08;3.72;;;7.40;99.90;;;;;;5063774;28;20737;-81
2022/01/04 00:13:21;;;;;;;21.00;4.00;;;7.40;99.90;;;;;;5069710;28;20043;-81
2022/01/04 00:14:18;;;;;;;19.67;3.58;;;7.50;99.90;;;;;;5070218;28;20094;-80
2022/01/04 00:16:44;;;;;;;17.52;3.10;;;7.40;99.90;;;;;;5084354;28;20102;-80
2022/01/04 00:19:10;;;;;;;21.65;4.13;;;7.40;99.90;;;;;;5053281;28;20051;-81
2022/01/04 00:21:38;;;;;;;25.30;3.55;;;7.50;99.90;;;;;;5070747;28;20066;-80
2022/01/04 00:24:04;;;;;;;23.58;3.83;;;7.50;99.90;;;;;;5047651;28;20048;-81
2022/01/04 00:26:30;;;;;;;23.10;3.42;;;7.50;99.90;;;;;;5050624;28;20051;-81
2022/01/04 00:28:56;;;;;;;20.70;3.50;;;7.50;99.90;;;;;;5070145;28;20105;-80
2022/01/04 00:31:23;;;;;;;22.30;3.33;;;7.50;99.90;;;;;;5069199;28;20081;-81
2022/01/04 00:33:50;;;;;;;24.48;3.90;;;7.60;99.90;;;;;;5068600;28;20135;-81
2022/01/04 00:36:16;;;;;;;21.77;4.13;;;7.50;99.90;;;;;;5084880;28;20043;-81
2022/01/04 00:38:42;;;;;;;20.35;3.65;;;7.50;99.90;;;;;;5065578;28;20055;-80
2022/01/04 00:41:07;;;;;;;24.08;4.07;;;7.50;99.90;;;;;;5068218;28;20779;-81
2022/01/04 00:43:33;;;;;;;23.48;3.92;;;7.60;99.90;;;;;;5052640;28;20047;-81
2022/01/04 00:46:00;;;;;;;22.73;4.15;;;7.60;99.90;;;;;;5084209;28;20058;-81
2022/01/04 00:50:53;;;;;;;22.02;3.67;;;7.60;99.90;;;;;;5081594;28;20139;-81
2022/01/04 00:53:20;;;;;;;16.77;3.70;;;7.60;99.90;;;;;;5081220;28;20035;-80
2022/01/04 00:55:45;;;;;;;23.65;4.22;;;7.60;99.90;;;;;;5082057;28;20112;-81
2022/01/04 00:58:11;;;;;;;18.38;3.50;;;7.60;99.90;;;;;;5052399;28;20469;-81
2022/01/04 01:00:37;;;;;;;19.92;3.42;;;7.60;99.90;;;;;;5081530;28;20090;-81
2022/01/04 01:03:03;;;;;;;27.23;4.53;;;7.60;99.90;;;;;;5064482;28;20070;-80
2022/01/04 01:05:30;;;;;;;22.90;3.92;;;7.60;99.90;;;;;;5067977;28;20050;-81
2022/01/04 01:07:56;;;;;;;21.98;4.32;;;7.60;99.90;;;;;;5073350;28;20075;-81
2022/01/04 01:12:56;;;;;;;21.73;4.15;;;7.60;99.90;;;;;;5080884;28;20059;-81
2022/01/04 01:15:22;;;;;;;21.88;3.72;;;7.60;99.90;;;;;;5068349;28;20052;-80
2022/01/04 01:17:48;;;;;;;24.90;3.50;;;7.60;99.90;;;;;;5069088;28;20062;-82
2022/01/04 01:20:14;;;;;;;19.27;3.72;;;7.60;99.90;;;;;;5065535;28;20056;-81
2022/01/04 01:22:41;;;;;;;23.38;3.47;;;8.10;99.90;;;;;;5072078;28;20130;-81
2022/01/04 01:25:08;;;;;;;20.77;3.53;;;7.60;99.90;;;;;;5051921;28;20083;-80
2022/01/04 01:27:34;;;;;;;20.27;3.63;;;7.60;99.90;;;;;;5082286;28;20039;-81
2022/01/04 01:29:59;;;;;;;21.10;3.35;;;7.60;99.90;;;;;;5068560;28;20405;-80
2022/01/04 01:32:25;;;;;;;19.33;3.95;;;7.60;99.90;;;;;;5050573;28;20039;-80
2022/01/04 01:34:51;;;;;;;18.20;3.35;;;7.60;99.90;;;;;;5084206;28;20093;-81
2022/01/04 01:37:17;;;;;;;21.05;3.63;;;7.60;99.90;;;;;;5083466;28;20085;-81
2022/01/04 01:39:43;;;;;;;18.25;3.55;;;7.60;99.90;;;;;;5083352;28;20121;-80
2022/01/04 01:42:09;;;;;;;22.52;3.60;;;7.60;99.90;;;;;;5050508;28;20558;-81
2022/01/04 01:44:35;;;;;;;18.88;3.22;;;7.60;99.90;;;;;;5055982;28;20052;-81
2022/01/04 01:47:01;;;;;;;29.20;4.28;;;7.60;99.90;;;;;;5070567;28;20507;-80
2022/01/04 01:49:28;;;;;;;28.73;3.35;;;7.60;99.90;;;;;;5040350;28;20062;-80
2022/01/04 01:51:54;;;;;;;18.20;3.17;;;7.60;99.90;;;;;;5067631;28;20058;-81
2022/01/04 01:54:20;;;;;;;20.73;3.67;;;7.60;99.90;;;;;;5087266;28;20044;-80
2022/01/04 01:56:46;;;;;;;25.55;4.05;;;7.60;99.90;;;;;;5086656;28;20047;-80
2022/01/04 01:59:13;;;;;;;27.20;4.43;;;7.50;99.90;;;;;;5085379;28;20121;-80
2022/01/04 02:01:39;;;;;;;23.27;3.60;;;7.50;99.90;;;;;;5088178;28;20177;-80
2022/01/04 02:04:05;;;;;;;27.42;3.65;;;7.50;99.90;;;;;;5083903;28;20140;-81
2022/01/04 02:06:31;;;;;;;19.60;3.88;;;7.50;99.90;;;;;;5071945;28;20048;-81
2022/01/04 02:08:58;;;;;;;17.38;3.03;;;7.50;99.90;;;;;;5069720;28;20044;-81
2022/01/04 02:11:30;;;;;;;23.63;3.55;;;7.50;99.90;;;;;;5055709;28;20051;-81
2022/01/04 02:13:57;;;;;;;22.83;3.72;;;7.50;99.90;;;;;;5070196;28;20067;-81
2022/01/04 02:16:25;;;;;;;27.55;4.15;;;7.50;99.90;;;;;;5055560;28;20131;-82
2022/01/04 02:18:51;;;;;;;23.75;3.63;;;7.50;99.90;;;;;;5077860;28;20039;-81
2022/01/04 02:21:17;;;;;;;21.77;3.35;;;7.40;99.90;;;;;;5062755;28;20438;-81
2022/01/04 02:23:43;;;;;;;16.80;3.60;;;7.40;99.90;;;;;;5073090;28;20069;-80
2022/01/04 02:26:09;;;;;;;27.00;4.07;;;7.40;99.90;;;;;;5055182;28;20035;-81
2022/01/04 02:28:35;;;;;;;24.77;3.88;;;7.40;99.90;;;;;;5075924;28;20096;-81
2022/01/04 02:31:01;;;;;;;20.25;3.35;;;7.40;99.90;;;;;;5081363;28;20082;-81
2022/01/04 02:33:27;;;;;;;23.90;3.78;;;7.40;99.90;;;;;;5075275;28;20079;-80
2022/01/04 02:35:53;;;;;;;26.27;3.80;;;6.60;99.90;;;;;;5069887;28;20053;-81
2022/01/04 02:38:18;;;;;;;22.95;4.03;;;7.40;99.90;;;;;;5068052;28;20059;-80
2022/01/04 02:40:44;;;;;;;17.33;3.22;;;7.40;99.90;;;;;;5070637;28;20043;-81
2022/01/04 02:43:10;;;;;;;22.88;3.80;;;7.40;99.90;;;;;;5068215;28;20036;-81
2022/01/04 02:45:36;;;;;;;23.08;3.22;;;7.40;99.90;;;;;;5068332;28;20490;-81
2022/01/04 02:48:02;;;;;;;20.40;3.50;;;7.40;99.90;;;;;;5083970;28;20162;-80
2022/01/04 02:50:28;;;;;;;23.50;3.60;;;7.40;99.90;;;;;;5056165;28;20047;-80
2022/01/04 02:52:54;;;;;;;25.77;3.58;;;7.40;99.90;;;;;;5082512;28;20055;-81
2022/01/04 02:55:20;;;;;;;21.15;3.60;;;7.50;99.90;;;;;;5072378;28;20043;-81
2022/01/04 02:57:46;;;;;;;21.85;3.47;;;7.40;99.90;;;;;;5055380;28;20116;-81
2022/01/04 03:00:14;;;;;;;17.77;3.63;;;7.40;99.90;;;;;;5065280;28;20135;-81
2022/01/04 03:02:40;;;;;;;17.17;3.55;;;7.40;99.90;;;;;;5053451;28;20043;-81
2022/01/04 03:05:07;;;;;;;23.17;3.95;;;7.50;99.90;;;;;;5076481;28;20051;-81
2022/01/04 03:07:33;;;;;;;17.58;3.10;;;7.50;99.90;;;;;;5068139;28;20424;-80
2022/01/04 03:09:59;;;;;;;20.58;3.65;;;7.50;99.90;;;;;;5065056;28;20031;-81
2022/01/04 03:12:25;;;;;;;20.17;3.75;;;7.50;99.90;;;;;;5069292;28;20886;-81
2022/01/04 03:14:51;;;;;;;19.20;3.72;;;7.50;99.90;;;;;;5084110;28;20091;-81
2022/01/04 03:17:16;;;;;;;27.23;3.83;;;7.50;99.90;;;;;;5054219;28;20059;-80
2022/01/04 03:19:42;;;;;;;25.40;3.60;;;7.50;99.90;;;;;;5068434;28;20043;-81
2022/01/04 03:22:08;;;;;;;25.58;4.38;;;7.50;99.90;;;;;;5036064;28;20056;-81
2022/01/04 03:24:33;;;;;;;27.50;4.00;;;7.50;99.90;;;;;;5068399;28;20047;-81
2022/01/04 03:27:00;;;;;;;20.52;4.07;;;7.50;99.90;;;;;;5062507;28;20043;-81
2022/01/04 03:29:26;;;;;;;24.45;4.35;;;7.50;99.90;;;;;;5049695;28;20051;-81
2022/01/04 03:31:55;;;;;;;25.38;4.03;;;7.50;99.90;;;;;;5079593;28;20043;-81
2022/01/04 03:34:20;;;;;;;22.08;3.42;;;7.50;99.90;;;;;;5069778;28;20503;-81
2022/01/04 03:36:46;;;;;;;21.50;4.10;;;7.50;99.90;;;;;;5053584;28;20043;-81
2022/01/04 03:39:13;;;;;;;24.98;3.90;;;7.50;99.90;;;;;;5053630;28;20065;-81
2022/01/04 03:41:41;;;;;;;18.15;2.92;;;7.50;99.90;;;;;;5070021;28;20130;-81
2022/01/04 03:44:10;;;;;;;27.15;3.85;;;7.50;99.90;;;;;;5075121;28;20438;-81
2022/01/04 03:46:36;;;;;;;24.52;3.92;;;7.50;99.90;;;;;;5080240;28;20047;-81
2022/01/04 03:49:03;;;;;;;20.42;3.45;;;7.50;99.90;;;;;;5080040;28;20126;-81
2022/01/04 03:51:29;;;;;;;27.13;4.55;;;7.50;99.90;;;;;;5083380;28;20051;-81
2022/01/04 03:53:54;;;;;;;25.15;4.03;;;7.40;99.90;;;;;;5083267;28;20051;-80
2022/01/04 03:56:20;;;;;;;30.65;4.55;;;7.40;99.90;;;;;;5070053;28;20048;-81
2022/01/04 03:58:46;;;;;;;23.48;3.72;;;7.40;99.90;;;;;;5084558;28;20089;-81
2022/01/04 04:01:12;;;;;;;18.15;3.72;;;7.40;99.90;;;;;;5037115;28;20051;-81
2022/01/04 04:03:37;;;;;;;26.83;3.50;;;7.40;99.90;;;;;;5083169;28;20044;-81
2022/01/04 04:06:03;;;;;;;29.17;4.40;;;7.40;99.90;;;;;;5049422;28;20374;-81
2022/01/04 04:08:29;;;;;;;30.08;4.00;;;7.40;99.90;;;;;;5066889;28;20130;-81
2022/01/04 04:10:55;;;;;;;17.80;3.67;;;7.40;99.90;;;;;;5068376;28;20043;-81
2022/01/04 04:13:21;;;;;;;22.02;3.58;;;7.60;99.90;;;;;;5080654;28;20060;-81
2022/01/04 04:15:47;;;;;;;26.08;3.97;;;7.40;99.90;;;;;;5068070;28;20773;-81
2022/01/04 04:18:13;;;;;;;20.17;3.95;;;7.40;99.90;;;;;;5079443;28;20070;-81
2022/01/04 04:20:39;;;;;;;27.20;4.40;;;7.40;99.90;;;;;;5068651;28;20080;-80
2022/01/04 04:23:06;;;;;;;22.55;4.00;;;7.40;99.90;;;;;;5035155;28;20040;-80
2022/01/04 04:25:33;;;;;;;25.50;3.83;;;7.40;99.90;;;;;;5064565;28;20131;-80
2022/01/04 04:27:59;;;;;;;24.63;3.78;;;7.40;99.90;;;;;;5084830;28;20422;-80
2022/01/04 04:30:25;;;;;;;22.25;4.10;;;7.40;99.90;;;;;;5059454;28;20516;-80
2022/01/04 04:32:51;;;;;;;22.63;4.03;;;7.50;99.90;;;;;;5061766;28;20058;-80
2022/01/04 04:35:17;;;;;;;23.85;4.05;;;7.40;99.90;;;;;;5067209;28;21442;-80
2022/01/04 04:37:43;;;;;;;19.50;3.85;;;7.50;99.90;;;;;;5083375;28;20043;-80
2022/01/04 04:40:09;;;;;;;24.45;4.38;;;7.50;99.90;;;;;;5067688;28;20047;-80
2022/01/04 04:42:35;;;;;;;20.40;3.95;;;7.50;99.90;;;;;;5069725;28;20062;-80
2022/01/04 04:45:02;;;;;;;21.73;3.78;;;7.50;99.90;;;;;;5069387;28;20043;-80
2022/01/04 04:47:28;;;;;;;29.42;4.55;;;7.50;99.90;;;;;;5066265;28;20067;-80
2022/01/04 04:49:54;;;;;;;20.45;3.88;;;7.60;99.90;;;;;;5065240;28;20508;-80
2022/01/04 04:52:20;;;;;;;23.50;4.28;;;7.50;99.90;;;;;;5052561;28;20232;-80
2022/01/04 04:54:46;;;;;;;21.27;4.10;;;7.50;99.90;;;;;;5050961;28;20404;-80
2022/01/04 04:57:11;;;;;;;25.80;5.15;;;8.30;99.90;;;;;;5066933;28;20155;-80
2022/01/04 04:59:37;;;;;;;27.20;4.07;;;7.50;99.90;;;;;;5065855;28;20040;-80
2022/01/04 05:02:04;;;;;;;17.92;4.18;;;7.50;99.90;;;;;;5073610;28;20122;-81
2022/01/04 05:04:30;;;;;;;26.92;3.72;;;7.50;99.90;;;;;;5065859;28;20044;-80
2022/01/04 05:06:56;;;;;;;27.52;4.13;;;7.50;99.90;;;;;;5084022;28;20044;-80
2022/01/04 05:09:21;;;;;;;24.27;3.97;;;7.90;99.90;;;;;;5065655;28;20044;-80
2022/01/04 05:11:47;;;;;;;23.80;3.75;;;7.50;99.90;;;;;;5067397;28;20047;-80
2022/01/04 05:14:13;;;;;;;22.83;3.53;;;7.50;99.90;;;;;;5046706;28;20055;-80
2022/01/04 05:16:38;;;;;;;30.65;4.43;;;7.50;99.90;;;;;;5050409;28;20044;-81
2022/01/04 05:19:04;;;;;;;22.83;3.90;;;7.50;99.90;;;;;;5066273;28;20074;-80
2022/01/04 05:21:30;;;;;;;21.08;3.63;;;7.50;99.90;;;;;;5063470;28;20470;-80
2022/01/04 05:23:56;;;;;;;26.20;4.93;;;7.50;99.90;;;;;;5068945;28;20525;-80
2022/01/04 05:26:21;;;;;;;21.20;3.47;;;7.50;99.90;;;;;;5051025;28;20047;-81
2022/01/04 05:28:47;;;;;;;23.00;3.90;;;7.50;99.90;;;;;;5050042;28;20048;-80
2022/01/04 05:31:14;;;;;;;17.42;3.30;;;7.50;99.90;;;;;;5053221;28;20040;-80
2022/01/04 05:33:40;;;;;;;26.52;4.07;;;7.70;99.90;;;;;;5082489;28;20075;-80
2022/01/04 05:36:06;;;;;;;20.88;3.63;;;7.50;99.90;;;;;;5069898;28;20057;-80
2022/01/04 05:38:32;;;;;;;20.58;4.55;;;7.50;99.90;;;;;;5086409;28;20048;-80
2022/01/04 05:40:58;;;;;;;18.75;3.70;;;7.50;99.90;;;;;;5070772;28;20054;-80
2022/01/04 05:43:24;;;;;;;19.85;3.35;;;7.50;99.90;;;;;;5034666;28;20032;-81
2022/01/04 05:45:50;;;;;;;22.85;3.97;;;7.50;99.90;;;;;;5051581;28;20044;-80
2022/01/04 05:48:18;;;;;;;21.67;3.80;;;7.50;99.90;;;;;;5065526;28;20052;-80
2022/01/04 05:50:44;;;;;;;22.73;4.15;;;7.50;99.90;;;;;;5054149;28;20087;-80
2022/01/04 05:53:10;;;;;;;23.88;4.00;;;7.40;99.90;;;;;;5080746;28;20045;-81
2022/01/04 05:55:36;;;;;;;17.27;3.53;;;7.50;99.90;;;;;;5066047;28;20059;-80
2022/01/04 05:58:02;;;;;;;18.88;3.75;;;7.50;99.90;;;;;;5066644;28;20037;-80
2022/01/04 06:00:27;;;;;;;20.88;3.60;;;7.50;99.90;;;;;;5077755;28;20056;-80
2022/01/04 06:02:54;;;;;;;24.73;4.25;;;7.40;99.90;;;;;;5048148;28;20056;-81
2022/01/04 06:05:19;;;;;;;24.63;3.70;;;7.40;99.90;;;;;;5081742;28;20418;-81
2022/01/04 06:07:45;;;;;;;19.80;3.63;;;7.50;99.90;;;;;;5064021;28;20087;-80
2022/01/04 06:10:13;;;;;;;21.95;3.92;;;7.40;99.90;;;;;;5066780;28;20044;-81
2022/01/04 06:15:11;;;;;;;19.90;4.32;;;7.40;99.90;;;;;;5066518;28;20051;-81
2022/01/04 06:17:42;;;;;;;20.25;3.90;;;7.50;99.90;;;;;;5084897;28;20044;-81
2022/01/04 06:20:11;;;;;;;20.48;4.20;;;7.40;99.90;;;;;;5066975;28;20048;-81
2022/01/04 06:22:39;;;;;;;29.45;4.32;;;7.40;99.90;;;;;;5068269;28;20052;-81
2022/01/04 06:25:08;;;;;;;26.20;4.32;;;7.40;99.90;;;;;;5069064;28;20051;-81
2022/01/04 06:27:34;;;;;;;18.23;3.53;;;7.40;99.90;;;;;;5068228;28;20044;-81
2022/01/04 06:30:00;;;;;;;21.92;4.03;;;7.40;99.90;;;;;;5053965;28;20123;-81
2022/01/04 06:32:26;;;;;;;20.00;3.40;;;7.40;99.90;;;;;;5081741;28;20497;-80
2022/01/04 06:34:53;;;;;;;27.85;4.18;;;6.60;99.90;;;;;;5054464;28;20036;-80
2022/01/04 06:37:19;;;;;;;20.83;3.72;;;7.10;99.90;;;;;;5068580;28;20048;-80
2022/01/04 06:39:45;;;;;;;17.08;3.47;;;7.40;99.90;;;;;;5069896;28;20083;-80
2022/01/04 06:42:11;;;;;;;16.33;3.28;;;7.40;99.90;;;;;;5064947;28;20131;-81
2022/01/04 06:44:38;;;;;;;20.13;3.65;;;7.40;99.90;;;;;;5084039;28;20099;-80
2022/01/04 06:47:04;;;;;;;17.88;3.45;;;7.40;99.90;;;;;;5085689;28;20089;-80
2022/01/04 06:49:31;;;;;;;18.77;3.53;;;7.40;99.90;;;;;;5069299;28;20071;-80
2022/01/04 06:51:56;;;;;;;29.08;3.47;;;7.30;99.90;;;;;;5081290;28;20040;-80
2022/01/04 06:54:22;;;;;;;18.48;3.58;;;7.30;99.90;;;;;;5066955;28;20044;-80
2022/01/04 06:56:49;;;;;;;17.20;3.63;;;7.30;99.90;;;;;;5052479;28;20047;-80
2022/01/04 06:59:16;;;;;;;19.65;3.78;;;7.30;99.90;;;;;;5068270;28;20056;-81
2022/01/04 07:01:42;;;;;;;19.42;3.92;;;7.30;99.90;;;;;;5066025;28;20069;-80
2022/01/04 07:04:08;;;;;;;19.77;4.00;;;7.30;99.90;;;;;;5081357;28;20039;-80
2022/01/04 07:06:34;;;;;;;23.30;4.25;;;7.30;99.90;;;;;;5083523;28;20121;-80
2022/01/04 07:09:00;;;;;;;23.75;3.88;;;7.30;99.90;;;;;;5083516;28;20067;-80
2022/01/04 07:11:26;;;;;;;22.98;4.18;;;7.30;99.90;;;;;;5066107;28;20052;-80
2022/01/04 07:13:53;;;;;;;21.15;3.78;;;7.30;99.90;;;;;;5067854;28;20501;-80
2022/01/04 07:16:19;;;;;;;17.38;3.30;;;7.30;99.90;;;;;;5036343;28;20169;-80
2022/01/04 07:18:48;;;;;;;22.63;4.30;;;7.30;99.90;;;;;;5052460;28;20057;-81
2022/01/04 07:21:18;;;;;;;21.13;4.10;;;7.30;99.90;;;;;;5053859;28;20054;-80
2022/01/04 07:23:46;;;;;;;16.38;3.97;;;7.30;99.90;;;;;;5065992;28;20071;-80
2022/01/04 07:26:14;;;;;;;15.85;3.95;;;7.30;99.90;;;;;;5065991;28;20059;-80
2022/01/04 07:28:46;;;;;;;14.32;3.55;;;7.30;99.90;;;;;;5068496;28;20041;-80
2022/01/04 07:31:13;;;;;;;25.40;4.30;;;7.20;99.90;;;;;;5063773;28;20097;-80
2022/01/04 07:33:39;;;;;;;22.75;3.80;;;8.20;99.90;;;;;;5067633;28;20055;-80
2022/01/04 07:36:06;;;;;;;17.35;3.63;;;7.40;99.90;;;;;;5064765;28;20106;-80
2022/01/04 07:38:36;;;;;;;20.48;4.05;;;7.20;99.90;;;;;;5066746;28;20059;-80
2022/01/04 07:41:03;;;;;;;13.82;2.65;;;7.20;99.90;;;;;;5067291;28;20036;-80
2022/01/04 07:43:28;;;;;;;10.20;2.08;;;7.20;99.90;;;;;;5063658;28;20044;-81
2022/01/04 07:45:54;;;;;;;7.03;1.60;;;7.20;99.90;;;;;;5068505;28;20112;-81
2022/01/04 07:48:20;;;;;;;8.40;1.50;;;7.10;99.90;;;;;;5066430;28;20045;-80
2022/01/04 07:50:46;;;;;;;7.65;1.35;;;7.10;99.90;;;;;;5066458;28;20056;-81
2022/01/04 07:53:12;;;;;;;7.57;1.70;;;7.00;99.90;;;;;;5065117;28;20378;-81
2022/01/04 07:55:39;;;;;;;8.95;1.95;;;7.00;99.90;;;;;;5066809;28;20071;-81
2022/01/04 07:58:05;;;;;;;6.47;1.60;;;6.90;99.90;;;;;;5064489;28;20047;-81
2022/01/04 08:00:31;;;;;;;7.50;1.85;;;6.90;99.90;;;;;;5079089;28;20056;-81
2022/01/04 08:02:57;;;;;;;7.28;1.30;;;6.80;99.90;;;;;;5061415;28;20056;-81
2022/01/04 08:05:24;;;;;;;4.45;1.13;;;6.80;99.90;;;;;;5046284;28;20031;-80
2022/01/04 08:07:50;;;;;;;7.35;1.40;;;6.70;99.90;;;;;;5066477;28;20105;-79
2022/01/04 08:10:17;;;;;;;8.73;1.30;;;6.80;99.90;;;;;;5065895;28;20054;-81
2022/01/04 08:12:43;;;;;;;4.03;1.10;;;6.90;99.90;;;;;;5066697;28;20090;-79
2022/01/04 08:15:10;;;;;;;5.25;1.10;;;6.70;99.90;;;;;;5066653;28;20043;-80
2022/01/04 08:17:39;;;;;;;5.05;1.00;;;6.70;99.90;;;;;;5061812;28;20063;-79
2022/01/04 08:20:06;;;;;;;5.90;1.10;;;6.60;99.90;;;;;;5035660;28;20048;-80
2022/01/04 08:22:35;;;;;;;5.88;1.13;;;6.60;99.90;;;;;;5050497;28;20055;-80
2022/01/04 08:25:07;;;;;;;6.07;1.30;;;6.50;99.90;;;;;;5066383;28;20040;-79
2022/01/04 08:27:34;;;;;;;6.10;1.10;;;6.50;99.90;;;;;;5067670;28;20036;-81
2022/01/04 08:30:09;;;;;;;4.43;1.00;;;6.40;99.90;;;;;;5069134;28;20052;-82
2022/01/04 08:32:37;;;;;;;5.40;1.20;;;6.40;99.90;;;;;;5064693;28;20056;-79
2022/01/04 08:35:03;;;;;;;2.88;1.00;;;6.30;99.90;;;;;;5079751;28;20056;-76
2022/01/04 08:37:30;;;;;;;4.03;0.88;;;6.40;99.90;;;;;;5067193;28;20485;-77
2022/01/04 08:39:56;;;;;;;3.30;1.10;;;6.30;99.90;;;;;;5052859;28;20044;-78
2022/01/04 08:42:22;;;;;;;4.45;0.93;;;6.30;99.90;;;;;;5050936;28;20083;-79
2022/01/04 08:44:55;;;;;;;5.90;1.00;;;6.30;99.90;;;;;;5081824;28;20554;-78
2022/01/04 08:47:21;;;;;;;10.93;1.10;;;6.40;99.90;;;;;;5064301;28;20126;-79
2022/01/04 08:49:47;;;;;;;3.15;0.82;;;6.30;99.90;;;;;;5068794;28;20082;-80
2022/01/04 08:52:13;;;;;;;3.50;0.82;;;6.30;99.90;;;;;;5068172;28;20496;-79
2022/01/04 08:54:39;;;;;;;6.22;0.90;;;6.30;99.90;;;;;;5051618;28;20048;-79
2022/01/04 08:57:06;;;;;;;5.18;1.00;;;6.20;99.90;;;;;;5067878;28;20044;-79
2022/01/04 08:59:33;;;;;;;3.30;0.90;;;6.20;99.90;;;;;;5068642;28;20105;-79
2022/01/04 09:01:59;;;;;;;4.00;1.00;;;6.20;99.90;;;;;;5069518;28;20052;-79
2022/01/04 09:04:27;;;;;;;4.93;1.02;;;6.40;99.90;;;;;;5061678;28;20546;-79
2022/01/04 09:06:53;;;;;;;5.90;0.80;;;6.80;99.90;;;;;;5085052;28;20084;-79
2022/01/04 09:09:20;;;;;;;4.78;0.70;;;6.10;99.90;;;;;;5052176;28;20090;-80
2022/01/04 09:11:46;;;;;;;2.70;1.25;;;6.10;99.90;;;;;;5069181;28;20083;-79
2022/01/04 09:15:04;;;;;;;4.43;0.90;;;7.40;99.90;;;;;;5084118;28;20512;-79
2022/01/04 09:19:42;;;;;;;4.20;0.68;;;6.00;99.90;;;;;;5084421;28;20044;-79
2022/01/04 09:22:08;;;;;;;2.63;0.57;;;6.00;99.90;;;;;;5052709;28;20052;-79
2022/01/04 09:24:34;;;;;;;3.20;0.60;;;5.90;99.90;;;;;;5069318;28;20580;-79
2022/01/04 09:27:01;;;;;;;2.35;0.80;;;6.10;99.90;;;;;;5069190;28;20036;-79
2022/01/04 09:29:27;;;;;;;3.22;0.80;;;5.90;99.90;;;;;;5036242;28;20474;-78
2022/01/04 09:31:54;;;;;;;2.38;0.70;;;5.90;99.90;;;;;;5085118;28;20122;-79
2022/01/04 09:34:20;;;;;;;3.10;0.90;;;5.80;99.90;;;;;;5086308;28;20052;-79
2022/01/04 09:36:46;;;;;;;2.40;0.82;;;6.10;99.90;;;;;;5062033;28;20718;-79
2022/01/04 09:39:21;;;;;;;2.80;0.98;;;5.80;99.90;;;;;;5064610;28;20044;-81
2022/01/04 09:41:47;;;;;;;3.92;0.80;;;5.80;99.90;;;;;;5065794;28;20054;-83
2022/01/04 09:44:14;;;;;;;3.80;0.82;;;5.70;99.90;;;;;;5081623;28;20121;-82
2022/01/04 09:46:41;;;;;;;2.67;0.73;;;6.30;99.90;;;;;;5067880;28;20056;-82
2022/01/04 09:49:09;;;;;;;5.32;0.80;;;5.80;99.90;;;;;;5063211;28;20547;-81
2022/01/04 09:51:37;;;;;;;2.90;1.00;;;6.70;99.90;;;;;;5068491;28;20053;-83
2022/01/04 09:54:03;;;;;;;3.20;0.80;;;5.60;99.90;;;;;;5062465;28;20131;-81
2022/01/04 09:56:29;;;;;;;3.45;0.88;;;5.60;99.90;;;;;;5084171;28;20123;-82
2022/01/04 09:58:55;;;;;;;8.93;1.70;;;5.60;99.90;;;;;;5069046;28;20048;-82
2022/01/04 10:01:26;;;;;;;6.15;1.50;;;5.50;99.90;;;;;;5034397;28;20123;-83
2022/01/04 10:03:52;;;;;;;2.90;0.95;;;5.60;99.90;;;;;;5069366;28;20036;-81
2022/01/04 10:06:19;;;;;;;4.05;0.90;;;5.50;99.90;;;;;;5081284;28;20504;-81
2022/01/04 10:09:01;;;;;;;2.80;1.00;;;5.50;99.90;;;;;;5084677;28;20051;-82
2022/01/04 10:11:33;;;;;;;3.90;1.73;;;5.50;99.90;;;;;;5089438;28;20048;-81
2022/01/04 10:14:26;;;;;;;5.72;1.77;;;5.40;99.90;;;;;;5084582;28;20095;-79
2022/01/04 10:16:58;;;;;;;5.05;1.38;;;5.50;99.90;;;;;;5089103;28;20135;-79
2022/01/04 10:19:31;;;;;;;2.55;1.05;;;6.00;99.90;;;;;;5087315;28;20055;-79
2022/01/04 10:22:35;;;;;;;4.97;1.52;;;5.50;99.90;;;;;;5055746;28;20067;-79
2022/01/04 10:25:00;;;;;;;4.53;1.05;;;5.50;99.90;;;;;;5055553;28;20442;-79
2022/01/04 10:27:30;;;;;;;6.07;1.20;;;5.70;99.90;;;;;;5072644;28;20130;-80
2022/01/04 10:30:20;;;;;;;5.20;1.73;;;5.60;99.90;;;;;;5072114;28;20060;-80
2022/01/04 10:32:55;;;;;;;2.08;1.02;;;5.60;99.90;;;;;;5071981;28;20047;-79
2022/01/04 10:35:27;;;;;;;5.50;1.10;;;5.60;99.90;;;;;;5088083;28;20059;-79
2022/01/04 10:37:55;;;;;;;4.07;1.33;;;5.70;99.90;;;;;;5088738;28;20108;-79
2022/01/04 10:40:21;;;;;;;7.43;1.33;;;5.70;99.90;;;;;;5071563;28;20040;-80
2022/01/04 10:42:47;;;;;;;4.57;1.02;;;5.70;99.90;;;;;;5054033;28;20040;-79
2022/01/04 10:45:29;;;;;;;4.28;1.00;;;5.90;99.90;;;;;;5054674;28;20059;-79
2022/01/04 10:47:55;;;;;;;5.75;1.10;;;5.70;99.90;;;;;;5071821;28;20469;-79
2022/01/04 10:50:31;;;;;;;4.50;1.20;;;5.70;99.90;;;;;;5069138;28;20043;-79
2022/01/04 10:52:59;;;;;;;7.07;1.30;;;5.80;99.90;;;;;;5071653;28;20154;-79
2022/01/04 10:55:34;;;;;;;4.28;1.00;;;5.80;99.90;;;;;;5082928;28;20486;-79
2022/01/04 10:58:00;;;;;;;3.88;1.13;;;5.80;99.90;;;;;;5088302;28;20078;-79
2022/01/04 11:00:27;;;;;;;3.38;1.00;;;6.00;99.90;;;;;;5072016;28;20059;-79
2022/01/04 11:02:53;;;;;;;3.28;1.20;;;6.00;99.90;;;;;;5054459;28;20062;-79
2022/01/04 11:05:21;;;;;;;5.60;1.10;;;6.90;99.90;;;;;;5082476;28;20123;-79
2022/01/04 11:08:03;;;;;;;6.03;1.17;;;6.00;99.90;;;;;;5068056;28;20083;-78
2022/01/04 11:10:32;;;;;;;9.10;1.45;;;6.00;99.90;;;;;;5071912;28;20126;-79
2022/01/04 11:12:59;;;;;;;4.22;1.00;;;6.30;99.90;;;;;;5086169;28;20064;-78
2022/01/04 11:15:26;;;;;;;4.15;1.00;;;6.00;99.90;;;;;;5039299;28;20052;-78
2022/01/04 11:17:52;;;;;;;6.38;1.20;;;6.00;99.90;;;;;;5070370;28;20044;-80
2022/01/04 11:20:19;;;;;;;6.80;1.23;;;6.00;99.90;;;;;;5071904;28;20139;-79
2022/01/04 11:22:46;;;;;;;4.00;0.98;;;6.10;99.90;;;;;;5050632;28;20056;-80
2022/01/04 11:25:14;;;;;;;3.13;1.00;;;7.00;99.90;;;;;;5052576;28;20036;-80
2022/01/04 11:27:41;;;;;;;5.15;1.00;;;6.00;99.90;;;;;;5080698;28;20047;-80
2022/01/04 11:30:13;;;;;;;4.25;1.08;;;6.00;99.90;;;;;;5066730;28;20036;-82
2022/01/04 11:32:43;;;;;;;5.30;1.25;;;6.00;99.90;;;;;;5064678;28;20052;-82
2022/01/04 11:35:19;;;;;;;6.63;1.42;;;6.00;99.90;;;;;;5068426;28;20120;-82
2022/01/04 11:37:56;;;;;;;8.48;1.40;;;6.00;99.90;;;;;;5083819;28;20071;-82
2022/01/04 11:40:26;;;;;;;3.72;1.10;;;5.90;99.90;;;;;;5081107;28;20099;-82
2022/01/04 11:42:53;;;;;;;4.70;1.23;;;5.80;99.90;;;;;;5066764;28;20040;-82
2022/01/04 11:45:42;;;;;;;6.32;1.40;;;5.80;99.90;;;;;;5063908;28;20048;-80
2022/01/04 11:48:35;;;;;;;5.82;1.05;;;5.80;99.90;;;;;;5066245;28;20048;-80
2022/01/04 11:51:07;;;;;;;6.88;1.25;;;5.70;99.90;;;;;;5069088;28;20496;-79
2022/01/04 11:53:34;;;;;;;9.05;1.30;;;5.70;99.90;;;;;;5079266;28;20059;-79
2022/01/04 11:56:06;;;;;;;4.18;1.27;;;5.70;99.90;;;;;;5066614;28;20075;-79
2022/01/04 11:58:45;;;;;;;4.25;1.15;;;5.70;99.90;;;;;;5081927;28;20044;-79
2022/01/04 12:01:15;;;;;;;4.18;1.17;;;5.70;99.90;;;;;;5080060;28;20048;-78
2022/01/04 12:03:51;;;;;;;3.67;0.90;;;5.70;99.90;;;;;;5078311;28;20405;-79
2022/01/04 12:06:19;;;;;;;4.68;1.10;;;5.70;99.90;;;;;;5081512;28;20075;-79
2022/01/04 12:08:50;;;;;;;3.05;0.90;;;5.70;99.90;;;;;;5079501;28;20047;-79
2022/01/04 12:11:20;;;;;;;5.20;1.30;;;5.70;99.90;;;;;;5052100;28;20126;-79
2022/01/04 12:13:51;;;;;;;3.90;1.15;;;5.80;99.90;;;;;;5066167;28;20067;-80
2022/01/04 12:16:42;;;;;;;5.65;1.35;;;5.70;99.90;;;;;;5078686;28;20127;-79
2022/01/04 12:19:15;;;;;;;3.53;1.10;;;5.70;99.90;;;;;;5063635;28;20393;-80
2022/01/04 12:22:00;;;;;;;2.70;1.10;;;5.70;99.90;;;;;;5067749;28;20409;-82
2022/01/04 12:24:46;;;;;;;2.27;0.90;;;5.70;99.90;;;;;;5069125;28;20464;-79
2022/01/04 12:27:13;;;;;;;5.30;1.30;;;5.70;99.90;;;;;;5085065;28;20072;-79
2022/01/04 12:29:40;;;;;;;5.72;1.20;;;5.70;99.90;;;;;;5068671;28;20130;-79
2022/01/04 12:32:11;;;;;;;7.65;1.30;;;5.80;99.90;;;;;;5068505;28;20083;-80
2022/01/04 12:34:49;;;;;;;6.13;1.00;;;5.80;99.90;;;;;;5069128;28;20040;-80
2022/01/04 12:37:18;;;;;;;5.47;1.27;;;5.80;99.90;;;;;;5069880;28;20048;-80
2022/01/04 12:39:46;;;;;;;4.20;1.00;;;5.80;99.90;;;;;;5085780;28;20532;-79
2022/01/04 12:42:15;;;;;;;3.55;1.10;;;5.90;99.90;;;;;;5083935;28;20090;-80
2022/01/04 12:44:49;;;;;;;4.72;1.30;;;5.90;99.90;;;;;;5085424;28;20044;-80
2022/01/04 12:47:17;;;;;;;5.18;1.20;;;5.90;99.90;;;;;;5087560;28;20471;-80
2022/01/04 12:49:43;;;;;;;4.60;1.50;;;6.00;99.90;;;;;;5068798;28;20060;-79
2022/01/04 12:52:10;;;;;;;3.88;1.63;;;6.00;99.90;;;;;;5085513;28;20052;-79
2022/01/04 12:54:41;;;;;;;6.90;1.10;;;6.00;99.90;;;;;;5037424;28;20057;-80
2022/01/04 12:57:21;;;;;;;6.22;1.70;;;6.10;99.90;;;;;;5069276;28;20494;-80
2022/01/04 12:59:47;;;;;;;6.45;1.20;;;6.10;99.90;;;;;;5076654;28;20043;-80
2022/01/04 13:02:16;;;;;;;3.83;0.95;;;6.20;99.90;;;;;;5085094;28;20058;-80
2022/01/04 13:04:46;;;;;;;5.65;1.23;;;6.20;99.90;;;;;;5079779;28;20048;-79